Agency, Missouri
Current Conditions -  °F | °C
As of 7:53 PM on Tuesday 21 Oct 2014 (Local Time) from KSTJ Reporting Station
Clear Clear  
Wind Chill: 16°   Ceiling: Unl
Heat Index: 16°   Visibility: 10mi
Dew Point:   Wind: 8mph
Humidity: 52%   Direction: 120°ESE
Pressure: 30.08"   Gusts: NA
Location:  39.64°N, 94.74°W
Report Text: KSTJ 220053Z 12007KT 10SM CLR 16/06 A3008 RMK AO2 SLP188 T01610061
Loading
Personal Weather Stations






























Interactive Weather Map New forecast layout! Learn more

10-Day Weather Forecast

Advertisements
Track Severe Weather on mobile